Aeroporto :
LOGIN :

Iscrizione | Disclaimer

   EN    FR    IT 

 










Sommario :    VFR   VFR Marginale   IFR   IFR Intensivo   IFR Molto Intensivo
Visibilità : 
Base nubi : 
>= 8 km
>= 3000ft
5 / 8 km
1000 / 3000 ft
1500m / 5 km
500 / 1000 ft
800 / 1500m
200 / 500 ft
< 800m
< 200 ft
Simboli :   Temporali  Nebbia  Neve Forte  Precipitazioni Forti  Vento > 20 kt
SIGMETs :   Varie  Temporali  Ghiacco  Turbolenza  Onda orograficha  Ceneri Vulcaniche







- Altitudine del aeroporto : 545 ft
- Codice IATA : PZY


LZPP - Piešťany

ULTIMO METAR :
  • 160900Z 35004KT 330V040 CAVOK 03/01 Q1032

METARs OBSOLETI :
  • 160830Z 32003KT 290V360 CAVOK 02/00 Q1032
  • 160800Z VRB02KT 9000 NSC 01/M00 Q1032
  • 160730Z 04004KT 7000 NSC 00/M01 Q1032
  • 160700Z 05005KT 7000 NSC M00/M01 Q1032
  • 160630Z 04005KT 7000 NSC M02/M03 Q1031
  • 160600Z 02004KT 7000 NSC M02/M02 Q1031

TAF TAF LZPP
Valido dal 16 a 09 ore il 16 a 18 ore UTC


160800Z 1609/1618 21004KT CAVOK
Nessun NOTAM noto per questo aeroporto.



MetMap, La meteo Aeronautica in un colpo d'occhio ! - Copyright ORBIFLY Dicembre 2007 - Disclaimer

ORBIFLY MET'MAP TEAM :

Programmazione e sviluppo : Alexandra Zaïnal
Concezione e sviluppo : Baudouin d'Aumeries
Co-Programmazione e sviluppo : Marc-Olivier Méhu
Supporto tecnico e logistico : Manuel Goepfert
Aiuto per la traduzione : Arnaldo La Scala

Contatto : metmap@orbifly.com




FONTI E CREDITI :

   NOAA